Time;durP1;ratioP1;P1;durP2;ratioP2;P2;SDS_P1;SDS_P2;PMS_P1;PMS_P2;Temp;Humidity;BMP_temperature;BMP_pressure;BME280_temperature;BME280_humidity;BME280_pressure;Samples;Min_cycle;Max_cycle;Signal;HPM_P1;HPM_P2
2022/08/03 00:00:54;;;;;;;;;;;;;;;27.07;81.93;97982.25;5142474;27;19927;-64
2022/08/03 00:03:20;;;;;;;;;;;;;;;26.98;82.84;97982.50;5143462;27;19923;-64
2022/08/03 00:05:47;;;;;;;;;;;;;;;27.30;81.01;97981.00;5141936;27;19954;-65
2022/08/03 00:08:13;;;;;;;;;;;;;;;27.30;80.79;97978.25;5139861;27;20635;-64
2022/08/03 00:10:41;;;;;;;;;;;;;;;27.57;78.56;97981.00;5140070;27;19973;-64
2022/08/03 00:13:07;;;;;;;;;;;;;;;27.70;77.05;97983.13;5142955;27;19951;-64
2022/08/03 00:15:34;;;;;;;;;;;;;;;27.66;77.31;97974.06;5143244;27;19974;-64
2022/08/03 00:18:00;;;;;;;;;;;;;;;27.91;75.51;97976.31;5139825;27;19934;-65
2022/08/03 00:20:26;;;;;;;;;;;;;;;27.87;75.25;97976.28;5139514;27;19966;-64
2022/08/03 00:22:53;;;;;;;;;;;;;;;27.65;76.62;97977.19;5141827;27;19959;-65
2022/08/03 00:25:19;;;;;;;;;;;;;;;27.67;76.73;97977.59;5143079;27;19923;-65
2022/08/03 00:27:47;;;;;;;;;;;;;;;27.43;78.24;97970.63;5140830;27;19932;-64
2022/08/03 00:30:13;;;;;;;;;;;;;;;27.32;79.05;97972.41;5139385;27;19966;-64
2022/08/03 00:32:40;;;;;;;;;;;;;;;27.35;78.94;97977.16;5139707;27;19931;-63
2022/08/03 00:35:06;;;;;;;;;;;;;;;27.31;79.44;97968.09;5142757;27;19924;-64
2022/08/03 00:37:33;;;;;;;;;;;;;;;27.33;79.14;97969.28;5142968;27;19962;-64
2022/08/03 00:39:59;;;;;;;;;;;;;;;27.19;79.74;97966.38;5139468;27;19928;-64
2022/08/03 00:42:25;;;;;;;;;;;;;;;27.27;79.29;97961.75;5138833;27;19919;-63
2022/08/03 00:44:53;;;;;;;;;;;;;;;27.48;77.66;97959.31;5140978;27;19926;-63
2022/08/03 00:47:20;;;;;;;;;;;;;;;27.51;77.04;97958.59;5142533;27;19945;-65
2022/08/03 00:49:46;;;;;;;;;;;;;;;27.66;76.30;97965.06;5141277;27;19999;-64
2022/08/03 00:52:13;;;;;;;;;;;;;;;27.57;76.55;97968.09;5139114;27;19930;-65
2022/08/03 00:54:40;;;;;;;;;;;;;;;27.26;78.77;97965.69;5139444;27;19924;-64
2022/08/03 00:57:06;;;;;;;;;;;;;;;27.30;78.65;97961.00;5142544;27;19980;-65
2022/08/03 00:59:33;;;;;;;;;;;;;;;27.39;77.99;97967.00;5142542;27;19965;-64
2022/08/03 01:02:01;;;;;;;;;;;;;;;27.43;77.71;97967.09;5139246;27;19934;-64
2022/08/03 01:04:27;;;;;;;;;;;;;;;27.59;76.27;97971.22;5138843;28;19924;-63
2022/08/03 01:06:58;;;;;;;;;;;;;;;27.45;76.80;97971.03;5122828;28;19966;-64
2022/08/03 01:09:28;;;;;;;;;;;;;;;27.68;75.54;97963.50;5142353;28;19931;-64
2022/08/03 01:12:00;;;;;;;;;;;;;;;27.56;76.16;97969.25;5139694;28;19935;-64
2022/08/03 01:14:32;;;;;;;;;;;;;;;27.53;76.42;97967.25;5120527;28;19924;-65
2022/08/03 01:16:59;;;;;;;;;;;;;;;27.63;75.52;97969.34;5141485;28;19923;-64
2022/08/03 01:19:45;;;;;;;;;;;;;;;27.80;74.65;97963.25;5142163;28;19951;-64
2022/08/03 01:22:20;;;;;;;;;;;;;;;27.91;73.83;97968.09;5117003;28;19930;-64
2022/08/03 01:24:50;;;;;;;;;;;;;;;27.54;75.70;97962.56;5137626;28;19963;-64
2022/08/03 01:27:18;;;;;;;;;;;;;;;27.13;78.52;97970.59;5142069;28;19923;-64
2022/08/03 01:29:57;;;;;;;;;;;;;;;27.09;79.33;97958.78;5141104;28;19927;-64
2022/08/03 01:32:25;;;;;;;;;;;;;;;27.08;79.77;97957.19;5138501;28;19924;-64
2022/08/03 01:34:55;;;;;;;;;;;;;;;26.77;81.87;97963.72;5140506;28;19930;-63
2022/08/03 01:37:24;;;;;;;;;;;;;;;26.49;83.57;97968.75;5141887;28;19923;-64
2022/08/03 01:39:52;;;;;;;;;;;;;;;26.42;84.27;97962.38;5142561;27;20027;-64
2022/08/03 01:42:19;;;;;;;;;;;;;;;26.41;84.54;97963.50;5124177;28;19958;-64
2022/08/03 01:44:47;;;;;;;;;;;;;;;26.42;84.57;97965.09;5143409;27;19955;-64
2022/08/03 01:47:16;;;;;;;;;;;;;;;26.52;84.14;97957.06;5146063;27;20449;-64
2022/08/03 01:49:43;;;;;;;;;;;;;;;26.61;83.45;97965.03;5145490;27;19963;-65
2022/08/03 01:52:11;;;;;;;;;;;;;;;26.91;81.25;97963.19;5142585;27;19924;-65
2022/08/03 01:54:40;;;;;;;;;;;;;;;27.31;78.90;97963.41;5142497;27;19931;-64
2022/08/03 01:57:07;;;;;;;;;;;;;;;27.49;77.26;97966.41;5134489;27;19924;-65
2022/08/03 01:59:34;;;;;;;;;;;;;;;27.56;76.47;97957.47;5142502;27;19928;-64
2022/08/03 02:02:01;;;;;;;;;;;;;;;27.58;76.33;97966.09;5145428;27;19986;-64
2022/08/03 02:04:30;;;;;;;;;;;;;;;27.62;76.09;97959.50;5145791;27;19924;-64
2022/08/03 02:06:57;;;;;;;;;;;;;;;27.60;75.81;97956.38;5142896;27;19928;-64
2022/08/03 02:09:25;;;;;;;;;;;;;;;27.63;75.37;97958.38;5141924;27;19920;-64
2022/08/03 02:11:51;;;;;;;;;;;;;;;27.68;75.36;97958.03;5141833;27;20307;-64
2022/08/03 02:14:19;;;;;;;;;;;;;;;27.71;75.18;97951.78;5141949;27;19931;-65
2022/08/03 02:16:47;;;;;;;;;;;;;;;27.64;75.08;97962.66;5143149;27;19965;-65
2022/08/03 02:19:14;;;;;;;;;;;;;;;27.56;75.47;97950.03;5145437;27;19931;-65
2022/08/03 02:21:43;;;;;;;;;;;;;;;27.56;75.88;97957.47;5145028;27;19941;-65
2022/08/03 02:24:10;;;;;;;;;;;;;;;27.57;75.63;97954.38;5142048;27;19939;-63
2022/08/03 02:26:38;;;;;;;;;;;;;;;27.43;76.65;97953.38;5141726;27;20010;-64
2022/08/03 02:29:06;;;;;;;;;;;;;;;27.46;76.75;97958.13;5133453;27;19983;-65
2022/08/03 02:31:34;;;;;;;;;;;;;;;27.33;77.53;97952.84;5141688;27;19924;-64
2022/08/03 02:34:02;;;;;;;;;;;;;;;27.42;77.02;97952.56;5144729;27;19958;-63
2022/08/03 02:36:30;;;;;;;;;;;;;;;27.36;77.46;97951.28;5145195;27;19952;-64
2022/08/03 02:38:59;;;;;;;;;;;;;;;27.24;78.25;97952.31;5142211;27;19927;-64
2022/08/03 02:41:29;;;;;;;;;;;;;;;27.30;78.10;97952.78;5141551;27;19974;-64
2022/08/03 02:43:56;;;;;;;;;;;;;;;27.23;78.36;97952.72;5141627;27;19947;-64
2022/08/03 02:46:25;;;;;;;;;;;;;;;27.06;79.42;97959.50;5141142;27;19923;-64
2022/08/03 02:48:52;;;;;;;;;;;;;;;26.94;80.25;97948.75;5143517;27;20054;-64
2022/08/03 02:51:20;;;;;;;;;;;;;;;26.83;81.30;97956.03;5143188;27;20407;-64
2022/08/03 02:53:48;;;;;;;;;;;;;;;26.93;81.08;97957.34;5143494;27;19931;-64
2022/08/03 02:56:16;;;;;;;;;;;;;;;26.90;81.21;97949.84;5140920;27;19923;-64
2022/08/03 02:58:43;;;;;;;;;;;;;;;27.01;80.47;97956.31;5123797;27;19924;-64
2022/08/03 03:01:10;;;;;;;;;;;;;;;27.12;79.75;97954.50;5144411;27;20589;-64
2022/08/03 03:03:37;;;;;;;;;;;;;;;27.24;79.20;97949.59;5144532;27;19965;-64
2022/08/03 03:06:05;;;;;;;;;;;;;;;27.26;79.02;97951.97;5132590;27;19927;-63
2022/08/03 03:08:32;;;;;;;;;;;;;;;27.30;78.69;97944.56;5141073;27;19924;-64
2022/08/03 03:11:00;;;;;;;;;;;;;;;27.32;78.50;97961.44;5143630;27;19928;-65
2022/08/03 03:13:28;;;;;;;;;;;;;;;27.29;78.56;97946.53;5144220;27;19963;-64
2022/08/03 03:15:57;;;;;;;;;;;;;;;27.26;78.69;97951.97;5141770;27;20011;-63
2022/08/03 03:18:23;;;;;;;;;;;;;;;27.17;79.59;97946.72;5140835;27;19928;-64
2022/08/03 03:20:51;;;;;;;;;;;;;;;27.14;79.83;97954.94;5142780;27;20015;-64
2022/08/03 03:23:17;;;;;;;;;;;;;;;27.03;80.36;97965.72;5144313;27;19927;-64
2022/08/03 03:25:44;;;;;;;;;;;;;;;27.07;80.50;97965.78;5143337;27;19919;-64
2022/08/03 03:28:11;;;;;;;;;;;;;;;27.01;81.01;97967.25;5140417;27;19924;-64
2022/08/03 03:30:39;;;;;;;;;;;;;;;27.09;80.58;97960.72;5140723;27;19924;-63
2022/08/03 03:33:05;;;;;;;;;;;;;;;27.11;80.36;97963.91;5132116;27;19953;-63
2022/08/03 03:35:32;;;;;;;;;;;;;;;27.18;79.83;97973.00;5140336;27;19995;-63
2022/08/03 03:37:58;;;;;;;;;;;;;;;27.15;80.10;97960.03;5143233;27;19935;-63
2022/08/03 03:40:25;;;;;;;;;;;;;;;27.12;80.20;97973.69;5144086;27;19979;-65
2022/08/03 03:42:52;;;;;;;;;;;;;;;27.16;80.32;97975.34;5134988;27;19955;-64
2022/08/03 03:45:18;;;;;;;;;;;;;;;27.21;79.66;97965.97;5143358;27;19924;-64
2022/08/03 03:47:46;;;;;;;;;;;;;;;27.22;79.60;97962.09;5142422;27;19923;-65
2022/08/03 03:50:12;;;;;;;;;;;;;;;27.20;79.66;97964.41;5139928;27;19959;-64
2022/08/03 03:52:39;;;;;;;;;;;;;;;27.20;79.79;97969.91;5140115;27;19920;-64
2022/08/03 03:55:06;;;;;;;;;;;;;;;27.16;80.22;97967.09;5143353;27;20000;-63
2022/08/03 03:57:33;;;;;;;;;;;;;;;27.20;80.12;97976.16;5143268;27;19974;-64
2022/08/03 04:00:00;;;;;;;;;;;;;;;27.21;80.00;97969.50;5140092;27;19930;-65
2022/08/03 04:02:26;;;;;;;;;;;;;;;27.20;79.94;97967.94;5139529;27;19934;-64
2022/08/03 04:13:13;;;;;;;;;;;;;;;27.08;80.77;97981.09;5110704;27;19923;-64
2022/08/03 04:15:40;;;;;;;;;;;;;;;27.10;81.08;97992.47;5142732;27;20543;-64
2022/08/03 04:18:07;;;;;;;;;;;;;;;27.06;81.18;97988.88;5139414;27;20007;-64
2022/08/03 04:20:36;;;;;;;;;;;;;;;27.08;81.32;97989.31;5139568;27;19919;-64
2022/08/03 04:23:03;;;;;;;;;;;;;;;27.11;80.91;97986.59;5125982;27;19951;-64
2022/08/03 04:25:32;;;;;;;;;;;;;;;27.07;81.31;97987.72;5143026;27;19998;-65
2022/08/03 04:28:00;;;;;;;;;;;;;;;27.10;81.29;97995.19;5139785;27;19938;-63
2022/08/03 04:30:27;;;;;;;;;;;;;;;27.12;81.14;97996.41;5139458;27;19924;-64
2022/08/03 04:32:54;;;;;;;;;;;;;;;27.09;81.03;97988.94;5141866;27;19981;-63
2022/08/03 04:35:21;;;;;;;;;;;;;;;26.87;82.80;97988.97;5143045;27;19935;-64
2022/08/03 04:37:51;;;;;;;;;;;;;;;26.83;83.30;97996.34;5141295;27;19935;-63
2022/08/03 04:40:19;;;;;;;;;;;;;;;26.88;82.91;97993.28;5138991;27;19959;-64
2022/08/03 04:42:47;;;;;;;;;;;;;;;26.57;84.82;98003.31;5139637;27;19928;-63
2022/08/03 04:45:15;;;;;;;;;;;;;;;26.60;84.81;97997.13;5142260;27;19974;-63
2022/08/03 04:47:42;;;;;;;;;;;;;;;26.39;86.71;97995.97;5142021;27;19923;-63
2022/08/03 04:50:09;;;;;;;;;;;;;;;26.15;88.49;98002.53;5139028;27;19935;-64
2022/08/03 04:52:36;;;;;;;;;;;;;;;26.34;87.23;98002.50;5138940;27;19966;-64
2022/08/03 04:55:04;;;;;;;;;;;;;;;26.45;86.66;98008.19;5124199;27;19945;-64
2022/08/03 04:57:30;;;;;;;;;;;;;;;26.54;85.77;98015.00;5142340;27;19934;-64
2022/08/03 04:59:56;;;;;;;;;;;;;;;26.65;85.35;98017.94;5139704;27;19929;-63
2022/08/03 05:02:23;;;;;;;;;;;;;;;26.76;84.70;98019.72;5138713;27;19924;-64
2022/08/03 05:04:49;;;;;;;;;;;;;;;26.76;84.51;98014.22;5140370;27;19924;-64
2022/08/03 05:07:16;;;;;;;;;;;;;;;26.41;87.82;98012.81;5142403;27;19927;-64
2022/08/03 05:09:43;;;;;;;;;;;;;;;26.23;88.82;98009.75;5141640;28;19923;-64
2022/08/03 05:12:11;;;;;;;;;;;;;;;25.85;91.95;98012.47;5138283;28;19997;-64
2022/08/03 05:14:37;;;;;;;;;;;;;;;25.73;93.54;98008.75;5138417;27;19962;-65
2022/08/03 05:17:04;;;;;;;;;;;;;;;25.41;98.41;98014.66;5130209;28;19924;-64
2022/08/03 05:19:31;;;;;;;;;;;;;;;25.25;99.42;98017.44;5138696;28;19931;-63
2022/08/03 05:21:57;;;;;;;;;;;;;;;24.69;100.00;98014.13;5141349;28;19924;-64
2022/08/03 05:24:23;;;;;;;;;;;;;;;24.34;100.00;98013.19;5142273;28;19942;-64
2022/08/03 05:26:50;;;;;;;;;;;;;;;24.11;100.00;98018.41;5140455;28;20371;-64
2022/08/03 05:29:18;;;;;;;;;;;;;;;24.23;100.00;98012.94;5138485;28;20018;-64
2022/08/03 05:31:44;;;;;;;;;;;;;;;24.10;100.00;98011.38;5139375;28;19927;-64
2022/08/03 05:34:10;;;;;;;;;;;;;;;23.90;100.00;98015.06;5142046;28;19924;-64
2022/08/03 05:36:36;;;;;;;;;;;;;;;23.61;100.00;98018.94;5142203;28;19959;-64
2022/08/03 05:39:03;;;;;;;;;;;;;;;23.72;100.00;98014.59;5138546;28;19959;-64
2022/08/03 05:41:29;;;;;;;;;;;;;;;24.14;100.00;98017.72;5138607;28;19924;-65
2022/08/03 05:43:56;;;;;;;;;;;;;;;24.54;100.00;98012.94;5138398;28;19924;-64
2022/08/03 05:46:24;;;;;;;;;;;;;;;24.79;100.00;98021.00;5138180;28;19951;-64
2022/08/03 05:48:50;;;;;;;;;;;;;;;24.24;100.00;98027.34;5140061;28;19935;-64
2022/08/03 05:51:17;;;;;;;;;;;;;;;24.24;100.00;98019.94;5141843;28;20014;-64
2022/08/03 05:53:43;;;;;;;;;;;;;;;24.35;100.00;98026.50;5141195;28;19987;-65
2022/08/03 05:56:10;;;;;;;;;;;;;;;25.06;100.00;98022.84;5138361;28;19924;-64
2022/08/03 05:58:36;;;;;;;;;;;;;;;25.10;100.00;98020.97;5138395;28;19924;-64
2022/08/03 06:01:02;;;;;;;;;;;;;;;25.06;100.00;98023.63;5141754;28;20066;-65
2022/08/03 06:03:30;;;;;;;;;;;;;;;25.04;100.00;98022.38;5141967;28;19958;-65
2022/08/03 06:05:57;;;;;;;;;;;;;;;24.99;100.00;98025.41;5137837;28;19924;-63
2022/08/03 06:08:23;;;;;;;;;;;;;;;25.12;100.00;98022.22;5138138;28;19924;-63
2022/08/03 06:10:50;;;;;;;;;;;;;;;25.83;100.00;98018.31;5139831;28;19963;-63
2022/08/03 06:13:16;;;;;;;;;;;;;;;25.81;100.00;98017.88;5141192;28;20636;-63
2022/08/03 06:15:42;;;;;;;;;;;;;;;25.25;100.00;98036.56;5140900;28;19923;-65
2022/08/03 06:18:09;;;;;;;;;;;;;;;24.93;100.00;98029.53;5119739;28;19931;-64
2022/08/03 06:20:36;;;;;;;;;;;;;;;25.00;100.00;98032.47;5138220;28;19928;-64
2022/08/03 06:23:03;;;;;;;;;;;;;;;25.45;100.00;98029.97;5124637;28;19958;-64
2022/08/03 06:25:29;;;;;;;;;;;;;;;25.82;100.00;98022.22;5141884;27;19958;-64
2022/08/03 06:27:56;;;;;;;;;;;;;;;25.99;100.00;98026.47;5142958;27;19923;-64
2022/08/03 06:30:22;;;;;;;;;;;;;;;26.08;100.00;98030.56;5141812;27;19955;-64
2022/08/03 06:32:48;;;;;;;;;;;;;;;25.49;100.00;98030.91;5143073;27;19923;-64
2022/08/03 06:35:15;;;;;;;;;;;;;;;25.42;100.00;98035.38;5145231;27;19959;-63
2022/08/03 06:37:44;;;;;;;;;;;;;;;25.48;100.00;98029.28;5144638;27;20006;-64
2022/08/03 06:40:11;;;;;;;;;;;;;;;25.25;100.00;98039.31;5141660;27;19924;-64
2022/08/03 06:42:38;;;;;;;;;;;;;;;25.37;100.00;98036.47;5141223;27;19951;-64
2022/08/03 06:45:05;;;;;;;;;;;;;;;25.50;100.00;98032.47;5132942;27;19955;-64
2022/08/03 06:47:31;;;;;;;;;;;;;;;26.01;100.00;98040.56;5141518;27;19968;-64
2022/08/03 06:49:57;;;;;;;;;;;;;;;25.86;100.00;98034.03;5144045;27;19962;-64
2022/08/03 06:52:24;;;;;;;;;;;;;;;25.86;100.00;98039.50;5144744;27;19923;-65
2022/08/03 06:54:51;;;;;;;;;;;;;;;26.21;99.84;98042.94;5143161;27;19962;-64
2022/08/03 06:57:18;;;;;;;;;;;;;;;26.37;98.08;98037.38;5141228;27;19924;-64
2022/08/03 06:59:44;;;;;;;;;;;;;;;26.44;98.02;98036.72;5142132;27;19923;-65
2022/08/03 07:02:11;;;;;;;;;;;;;;;26.78;94.18;98042.03;5144687;27;19951;-64
2022/08/03 07:04:37;;;;;;;;;;;;;;;26.38;96.27;98035.44;5144962;27;19954;-63
2022/08/03 07:07:04;;;;;;;;;;;;;;;26.14;98.00;98031.84;5132669;27;19958;-64
2022/08/03 07:09:30;;;;;;;;;;;;;;;26.15;98.67;98036.19;5141143;27;20401;-63
2022/08/03 07:12:01;;;;;;;;;;;;;;;25.87;100.00;98037.56;5140940;27;19924;-65
2022/08/03 07:14:27;;;;;;;;;;;;;;;25.70;100.00;98036.03;5141046;27;19924;-64
2022/08/03 07:16:53;;;;;;;;;;;;;;;26.18;100.00;98029.22;5142981;27;19938;-64
2022/08/03 07:19:20;;;;;;;;;;;;;;;26.58;95.31;98032.31;5144270;27;20549;-64
2022/08/03 07:21:46;;;;;;;;;;;;;;;26.41;97.51;98032.78;5125020;27;19970;-65
2022/08/03 07:24:13;;;;;;;;;;;;;;;27.71;88.76;98027.81;5140777;27;20010;-64
2022/08/03 07:26:39;;;;;;;;;;;;;;;27.38;89.70;98031.28;5140745;27;19995;-63
2022/08/03 07:29:07;;;;;;;;;;;;;;;27.89;87.32;98021.38;5144161;27;20387;-64
2022/08/03 07:31:33;;;;;;;;;;;;;;;27.80;86.78;98026.38;5144323;27;19920;-63
2022/08/03 07:34:00;;;;;;;;;;;;;;;27.38;89.10;98025.00;5141069;27;19923;-66
2022/08/03 07:36:26;;;;;;;;;;;;;;;27.26;89.83;98026.00;5139855;27;19924;-63
2022/08/03 07:38:52;;;;;;;;;;;;;;;26.96;90.98;98034.13;5142307;27;19946;-63
2022/08/03 07:41:19;;;;;;;;;;;;;;;26.72;92.97;98024.34;5143857;27;19923;-64
2022/08/03 07:43:45;;;;;;;;;;;;;;;26.62;93.80;98033.16;5142404;27;19983;-64
2022/08/03 07:46:13;;;;;;;;;;;;;;;27.12;92.61;98025.78;5139494;27;19962;-63
2022/08/03 07:48:40;;;;;;;;;;;;;;;27.35;89.36;98021.03;5140338;27;19989;-64
2022/08/03 07:51:06;;;;;;;;;;;;;;;27.68;86.96;98018.38;5143799;27;19930;-64
2022/08/03 07:53:33;;;;;;;;;;;;;;;27.49;88.44;98024.00;5143788;27;19950;-64
2022/08/03 07:55:59;;;;;;;;;;;;;;;27.36;89.24;98020.66;5140681;27;19967;-64
2022/08/03 07:58:25;;;;;;;;;;;;;;;27.35;90.01;98015.56;5140077;27;20055;-64
2022/08/03 08:00:52;;;;;;;;;;;;;;;27.99;85.78;98019.16;5140872;27;19923;-64
2022/08/03 08:03:21;;;;;;;;;;;;;;;27.52;87.99;98019.72;5143589;27;19983;-64
2022/08/03 08:05:48;;;;;;;;;;;;;;;27.34;89.82;98019.44;5142237;27;20586;-65
2022/08/03 08:08:14;;;;;;;;;;;;;;;27.07;91.16;98015.13;5139751;27;19924;-64
2022/08/03 08:10:41;;;;;;;;;;;;;;;27.10;91.07;98015.19;5140225;27;19959;-64
2022/08/03 08:13:07;;;;;;;;;;;;;;;27.13;91.57;98010.91;5142754;27;19959;-64
2022/08/03 08:15:33;;;;;;;;;;;;;;;27.10;92.01;98015.19;5143517;27;19970;-64
2022/08/03 08:18:01;;;;;;;;;;;;;;;27.80;87.91;98014.59;5140262;27;20210;-65
2022/08/03 08:20:30;;;;;;;;;;;;;;;27.64;87.88;98003.81;5139762;27;19939;-64
2022/08/03 08:22:57;;;;;;;;;;;;;;;27.74;86.40;98005.91;5142282;27;19920;-63
2022/08/03 08:25:24;;;;;;;;;;;;;;;27.53;87.66;98010.34;5143228;27;19923;-64
2022/08/03 08:27:50;;;;;;;;;;;;;;;27.55;87.96;98002.50;5141095;27;19923;-63
2022/08/03 08:30:18;;;;;;;;;;;;;;;27.69;86.54;98009.00;5139599;27;19931;-64
2022/08/03 08:32:45;;;;;;;;;;;;;;;27.53;86.99;98015.81;5140468;27;19998;-64
2022/08/03 08:35:12;;;;;;;;;;;;;;;27.65;86.70;98012.84;5143058;27;19966;-64
2022/08/03 08:37:40;;;;;;;;;;;;;;;27.86;84.27;98002.94;5143088;27;19930;-65
2022/08/03 08:40:07;;;;;;;;;;;;;;;27.55;85.53;98008.78;5131386;27;19995;-63
2022/08/03 08:42:34;;;;;;;;;;;;;;;27.69;85.97;98005.47;5137765;27;19930;-64
2022/08/03 08:45:00;;;;;;;;;;;;;;;27.58;86.12;98007.25;5142179;27;19923;-64
2022/08/03 08:47:29;;;;;;;;;;;;;;;27.87;85.11;97999.03;5142882;27;19991;-64
2022/08/03 08:49:57;;;;;;;;;;;;;;;27.79;83.80;98002.84;5139403;27;19959;-64
2022/08/03 08:52:24;;;;;;;;;;;;;;;27.78;85.03;98005.97;5139168;27;20026;-63
2022/08/03 08:54:53;;;;;;;;;;;;;;;28.39;81.63;98002.75;5140828;27;19924;-64
2022/08/03 08:57:21;;;;;;;;;;;;;;;28.89;79.53;97995.75;5142607;27;19928;-63
2022/08/03 08:59:47;;;;;;;;;;;;;;;28.64;80.06;97998.28;5141395;27;19927;-64
2022/08/03 09:02:14;;;;;;;;;;;;;;;28.18;79.57;98005.28;5138608;27;19981;-65
2022/08/03 09:04:40;;;;;;;;;;;;;;;28.18;78.23;98003.31;5138954;27;19924;-64
2022/08/03 09:07:07;;;;;;;;;;;;;;;28.12;77.34;98012.28;5142228;27;19923;-65
2022/08/03 09:09:33;;;;;;;;;;;;;;;28.28;77.71;98001.88;5142104;27;19963;-65
2022/08/03 09:12:01;;;;;;;;;;;;;;;28.91;77.08;97988.72;5138823;28;20206;-64
2022/08/03 09:14:29;;;;;;;;;;;;;;;29.03;73.93;98001.34;5138768;28;19931;-64
2022/08/03 09:16:57;;;;;;;;;;;;;;;28.80;73.93;97979.59;5141122;28;19945;-64
2022/08/03 09:19:23;;;;;;;;;;;;;;;28.82;72.75;97992.94;5142448;28;20057;-64
2022/08/03 09:22:06;;;;;;;;;;;;;;;29.48;72.69;97997.38;5122414;28;19931;-64
2022/08/03 09:24:33;;;;;;;;;;;;;;;29.91;69.94;97981.84;5138809;28;19962;-66
2022/08/03 09:26:59;;;;;;;;;;;;;;;29.68;68.59;97982.13;5141960;28;20341;-65
2022/08/03 09:29:31;;;;;;;;;;;;;;;30.14;66.13;97987.03;5142300;28;19959;-64
2022/08/03 09:31:59;;;;;;;;;;;;;;;30.65;65.27;97987.53;5139535;28;19926;-65
2022/08/03 09:34:27;;;;;;;;;;;;;;;30.50;61.28;97980.44;5138563;28;19923;-64
2022/08/03 09:36:53;;;;;;;;;;;;;;;30.22;63.77;97980.38;5140861;28;19953;-64
2022/08/03 09:39:20;;;;;;;;;;;;;;;29.82;64.25;97976.72;5142260;28;19923;-64
2022/08/03 09:41:48;;;;;;;;;;;;;;;29.48;65.00;97991.06;5140235;28;19934;-64
2022/08/03 09:44:14;;;;;;;;;;;;;;;29.62;64.62;97975.41;5138337;28;19923;-64
2022/08/03 09:46:52;;;;;;;;;;;;;;;29.55;64.65;97974.59;5138552;28;19934;-64
2022/08/03 09:49:18;;;;;;;;;;;;;;;29.94;64.50;97976.34;5142041;28;19986;-64
2022/08/03 09:51:45;;;;;;;;;;;;;;;30.19;61.42;97976.44;5123036;28;19930;-64
2022/08/03 09:54:11;;;;;;;;;;;;;;;29.99;60.31;97981.47;5138515;28;19927;-65
2022/08/03 09:56:42;;;;;;;;;;;;;;;29.58;59.20;97982.88;5138581;28;19985;-65
2022/08/03 09:59:09;;;;;;;;;;;;;;;30.00;61.54;97979.53;5130604;28;19920;-64
2022/08/03 10:01:36;;;;;;;;;;;;;;;29.61;61.51;97987.59;5141951;27;19935;-64
2022/08/03 10:04:04;;;;;;;;;;;;;;;29.77;61.29;97966.03;5145509;27;19969;-64
2022/08/03 10:06:30;;;;;;;;;;;;;;;29.69;60.45;97971.91;5145826;27;19943;-64
2022/08/03 10:09:05;;;;;;;;;;;;;;;29.90;58.71;97967.28;5143468;27;19962;-64
2022/08/03 10:11:33;;;;;;;;;;;;;;;30.39;57.92;97957.59;5142190;27;19924;-64
2022/08/03 10:14:00;;;;;;;;;;;;;;;30.58;56.10;97965.47;5142145;27;19934;-65
2022/08/03 10:16:27;;;;;;;;;;;;;;;30.33;56.73;97954.41;5142083;27;19931;-65
2022/08/03 10:18:55;;;;;;;;;;;;;;;30.22;57.58;97959.13;5144112;27;19924;-65
2022/08/03 10:21:23;;;;;;;;;;;;;;;30.15;56.26;97959.09;5145508;27;19929;-64
2022/08/03 10:23:50;;;;;;;;;;;;;;;30.19;54.88;97951.63;5144052;27;19924;-64
2022/08/03 10:26:18;;;;;;;;;;;;;;;30.57;54.86;97960.38;5141931;27;19952;-65
2022/08/03 10:28:48;;;;;;;;;;;;;;;30.19;54.09;97951.63;5142312;27;19959;-64
2022/08/03 10:31:16;;;;;;;;;;;;;;;30.77;55.90;97951.31;5145222;27;19934;-64
2022/08/03 10:33:43;;;;;;;;;;;;;;;30.81;55.37;97943.81;5144602;27;19960;-65
2022/08/03 10:36:10;;;;;;;;;;;;;;;30.54;52.78;97948.16;5141390;27;19924;-64
2022/08/03 10:38:44;;;;;;;;;;;;;;;30.48;52.69;97946.97;5141571;27;19928;-64
2022/08/03 10:41:12;;;;;;;;;;;;;;;30.39;52.61;97952.09;5134014;27;19923;-65
2022/08/03 10:43:48;;;;;;;;;;;;;;;30.49;51.90;97951.28;5141230;27;19920;-64
2022/08/03 10:46:15;;;;;;;;;;;;;;;30.46;52.29;97941.84;5133961;27;19968;-64
2022/08/03 10:48:42;;;;;;;;;;;;;;;30.64;52.17;97939.09;5141581;27;19987;-64
2022/08/03 10:51:08;;;;;;;;;;;;;;;30.84;51.83;97937.50;5144796;27;20539;-64
2022/08/03 10:53:36;;;;;;;;;;;;;;;30.64;51.21;97936.31;5144711;27;20259;-64
2022/08/03 10:58:52;;;;;;;;;;;;;;;30.31;50.51;97931.97;5142323;27;19950;-64
2022/08/03 11:01:19;;;;;;;;;;;;;;;30.39;51.55;97935.56;5144507;27;19927;-64
2022/08/03 11:04:06;;;;;;;;;;;;;;;30.45;51.84;97925.72;5143654;27;19928;-64
2022/08/03 11:06:32;;;;;;;;;;;;;;;30.64;52.39;97928.06;5135697;27;19999;-63
2022/08/03 11:09:15;;;;;;;;;;;;;;;30.70;52.45;97922.97;5143616;27;19959;-64
2022/08/03 11:11:44;;;;;;;;;;;;;;;30.80;52.25;97925.69;5142662;27;19930;-64
2022/08/03 11:14:13;;;;;;;;;;;;;;;31.21;51.67;97919.72;5140859;27;19950;-64
2022/08/03 11:16:40;;;;;;;;;;;;;;;31.31;51.17;97918.91;5140829;27;19935;-63
2022/08/03 11:19:07;;;;;;;;;;;;;;;30.95;49.83;97919.00;5144411;27;19952;-64
2022/08/03 11:21:53;;;;;;;;;;;;;;;30.95;49.65;97924.50;5144394;27;19987;-65
2022/08/03 11:24:38;;;;;;;;;;;;;;;30.95;50.05;97929.25;5134500;27;19987;-64
2022/08/03 11:27:18;;;;;;;;;;;;;;;30.96;50.92;97912.31;5132344;27;20519;-64
2022/08/03 11:29:54;;;;;;;;;;;;;;;31.24;50.60;97905.94;5141510;27;19930;-64
2022/08/03 11:32:35;;;;;;;;;;;;;;;31.43;49.58;97899.16;5144238;27;19991;-64
2022/08/03 11:35:08;;;;;;;;;;;;;;;31.35;48.97;97908.66;5140745;27;19930;-64
2022/08/03 11:37:34;;;;;;;;;;;;;;;31.11;48.66;97918.56;5140815;27;19966;-65
2022/08/03 11:40:01;;;;;;;;;;;;;;;30.97;48.55;97916.66;5143620;27;19931;-64
2022/08/03 11:42:46;;;;;;;;;;;;;;;31.15;49.42;97902.00;5137158;27;20265;-65
2022/08/03 11:45:12;;;;;;;;;;;;;;;31.45;49.68;97894.00;5132952;27;19991;-65
2022/08/03 11:47:39;;;;;;;;;;;;;;;31.46;47.02;97893.63;5140652;27;19924;-64
2022/08/03 11:50:06;;;;;;;;;;;;;;;31.47;46.89;97899.94;5132088;27;19924;-64
2022/08/03 11:52:40;;;;;;;;;;;;;;;31.53;48.08;97899.16;5140403;27;19924;-65
2022/08/03 11:55:10;;;;;;;;;;;;;;;31.64;47.61;97901.06;5132058;27;19934;-65
2022/08/03 11:57:37;;;;;;;;;;;;;;;31.63;45.85;97902.28;5140493;27;19989;-65
2022/08/03 12:00:19;;;;;;;;;;;;;;;31.53;45.67;97899.16;5143579;27;19924;-65
2022/08/03 12:02:53;;;;;;;;;;;;;;;31.60;44.41;97897.56;5143038;27;19923;-64
2022/08/03 12:05:20;;;;;;;;;;;;;;;31.57;45.38;97888.06;5140092;27;19951;-65
2022/08/03 12:07:46;;;;;;;;;;;;;;;31.42;44.40;97892.84;5141070;27;19939;-65
2022/08/03 12:10:13;;;;;;;;;;;;;;;31.29;45.41;97882.66;5143480;27;19923;-65
2022/08/03 12:12:41;;;;;;;;;;;;;;;31.39;46.49;97881.81;5135068;27;19919;-64
2022/08/03 12:15:09;;;;;;;;;;;;;;;31.55;45.70;97876.66;5143549;27;19930;-66
2022/08/03 12:17:36;;;;;;;;;;;;;;;31.59;44.79;97879.41;5143484;27;19962;-65
2022/08/03 12:20:03;;;;;;;;;;;;;;;31.33;44.09;97875.16;5140094;27;19924;-64
2022/08/03 12:22:33;;;;;;;;;;;;;;;31.40;44.36;97883.41;5139769;27;19933;-66
2022/08/03 12:25:00;;;;;;;;;;;;;;;31.61;44.52;97871.50;5142786;27;19927;-65
2022/08/03 12:27:28;;;;;;;;;;;;;;;31.69;44.79;97879.34;5143369;27;19919;-65
2022/08/03 12:29:55;;;;;;;;;;;;;;;31.79;44.92;97877.69;5141179;27;20432;-64
2022/08/03 12:32:24;;;;;;;;;;;;;;;31.90;44.39;97862.66;5121601;28;19954;-66
2022/08/03 12:34:51;;;;;;;;;;;;;;;31.79;43.15;97867.44;5141306;27;20568;-65
2022/08/03 12:37:19;;;;;;;;;;;;;;;31.75;44.90;97863.16;5143102;27;19923;-64
2022/08/03 12:39:49;;;;;;;;;;;;;;;32.00;42.11;97850.72;5141960;27;20190;-64
2022/08/03 12:42:16;;;;;;;;;;;;;;;31.94;42.35;97866.16;5138827;27;19934;-65
2022/08/03 12:44:44;;;;;;;;;;;;;;;31.77;41.95;97869.84;5139715;27;19931;-65
2022/08/03 12:47:11;;;;;;;;;;;;;;;31.92;41.18;97849.22;5143011;27;19934;-64
2022/08/03 12:49:46;;;;;;;;;;;;;;;31.97;41.51;97840.50;5143024;27;20026;-64
2022/08/03 12:52:12;;;;;;;;;;;;;;;31.90;40.72;97846.09;5131994;27;19924;-65
2022/08/03 12:54:39;;;;;;;;;;;;;;;31.88;38.53;97853.97;5139206;27;19924;-64
2022/08/03 12:57:06;;;;;;;;;;;;;;;31.77;41.04;97847.75;5131039;27;20385;-64
2022/08/03 12:59:34;;;;;;;;;;;;;;;31.96;41.01;97843.66;5139284;27;19932;-65